Time;durP1;ratioP1;P1;durP2;ratioP2;P2;SDS_P1;SDS_P2;PMS_P1;PMS_P2;Temp;Humidity;BMP_temperature;BMP_pressure;BME280_temperature;BME280_humidity;BME280_pressure;Samples;Min_cycle;Max_cycle;Signal;HPM_P1;HPM_P2
2021/11/22 00:00:28;;;;;;;2.22;0.77;;;5.20;99.90;;;;;;5043183;28;20471;-73
2021/11/22 00:02:56;;;;;;;0.22;0.20;;;5.20;99.90;;;;;;5044969;28;20088;-74
2021/11/22 00:05:22;;;;;;;1.10;0.65;;;5.20;99.90;;;;;;5048163;28;20029;-73
2021/11/22 00:07:48;;;;;;;2.58;1.20;;;5.10;99.90;;;;;;5047840;28;20044;-73
2021/11/22 00:10:14;;;;;;;1.10;0.47;;;5.10;99.90;;;;;;5047835;28;20034;-73
2021/11/22 00:12:39;;;;;;;6.47;0.85;;;5.10;99.90;;;;;;5047856;28;20053;-74
2021/11/22 00:15:09;;;;;;;2.13;0.70;;;5.20;99.90;;;;;;5046500;28;20056;-74
2021/11/22 00:17:35;;;;;;;1.45;0.50;;;5.10;99.90;;;;;;5047664;28;20080;-73
2021/11/22 00:20:03;;;;;;;1.40;0.70;;;5.10;99.90;;;;;;5048230;28;20026;-74
2021/11/22 00:22:29;;;;;;;2.53;0.60;;;5.10;99.90;;;;;;5047931;28;20045;-73
2021/11/22 00:24:55;;;;;;;6.30;0.70;;;5.00;99.90;;;;;;5048450;28;20060;-74
2021/11/22 00:27:21;;;;;;;2.47;0.55;;;5.10;99.90;;;;;;5046541;28;20060;-73
2021/11/22 00:29:47;;;;;;;1.60;0.60;;;5.00;99.90;;;;;;5041371;28;20030;-74
2021/11/22 00:32:13;;;;;;;0.93;0.60;;;5.00;99.90;;;;;;5035995;28;20052;-74
2021/11/22 00:34:42;;;;;;;1.10;0.60;;;5.00;99.90;;;;;;5027482;28;20502;-74
2021/11/22 00:37:13;;;;;;;1.58;1.00;;;5.00;99.90;;;;;;5027503;28;20022;-73
2021/11/22 00:39:39;;;;;;;1.48;0.60;;;5.00;99.90;;;;;;5027497;28;20030;-74
2021/11/22 00:42:09;;;;;;;0.60;0.50;;;4.90;99.90;;;;;;5026389;28;20482;-74
2021/11/22 00:44:39;;;;;;;0.45;0.45;;;4.90;99.90;;;;;;5045799;28;20163;-74
2021/11/22 00:47:06;;;;;;;3.33;0.98;;;4.90;99.90;;;;;;5045857;28;20044;-74
2021/11/22 00:49:33;;;;;;;10.80;1.15;;;5.00;99.90;;;;;;5045791;28;20030;-74
2021/11/22 00:51:59;;;;;;;1.08;0.52;;;4.90;99.90;;;;;;5045936;28;20029;-75
2021/11/22 00:54:25;;;;;;;1.35;0.60;;;4.90;99.90;;;;;;5047380;28;20064;-74
2021/11/22 00:56:51;;;;;;;0.88;0.40;;;4.90;99.90;;;;;;5047232;28;20029;-74
2021/11/22 00:59:17;;;;;;;1.77;0.93;;;4.80;99.90;;;;;;5046977;28;20156;-73
2021/11/22 01:01:45;;;;;;;1.58;0.57;;;4.90;99.90;;;;;;5046962;28;20032;-74
2021/11/22 01:04:12;;;;;;;9.73;0.77;;;4.80;99.90;;;;;;5046985;28;20037;-74
2021/11/22 01:06:38;;;;;;;5.05;0.70;;;4.80;99.90;;;;;;5046795;28;20048;-74
2021/11/22 01:09:04;;;;;;;2.58;0.77;;;4.80;99.90;;;;;;5045353;28;20025;-74
2021/11/22 01:11:30;;;;;;;0.93;0.63;;;4.70;99.90;;;;;;5045659;28;20036;-73
2021/11/22 01:13:56;;;;;;;1.13;0.70;;;4.70;99.90;;;;;;5046882;28;20100;-74
2021/11/22 01:16:22;;;;;;;1.13;0.60;;;4.70;99.90;;;;;;5046759;28;20045;-74
2021/11/22 01:18:47;;;;;;;1.92;0.88;;;4.70;99.90;;;;;;5046626;28;20036;-73
2021/11/22 01:21:13;;;;;;;1.67;0.77;;;4.70;99.90;;;;;;5046349;28;20033;-74
2021/11/22 01:23:38;;;;;;;1.42;1.05;;;4.60;99.90;;;;;;5046657;28;20067;-74
2021/11/22 01:26:04;;;;;;;1.67;1.27;;;4.60;99.90;;;;;;5046581;28;20038;-74
2021/11/22 01:28:31;;;;;;;3.72;0.77;;;4.60;99.90;;;;;;5046485;28;20021;-74
2021/11/22 01:30:57;;;;;;;1.05;0.65;;;4.60;99.90;;;;;;5046365;28;20017;-74
2021/11/22 01:33:24;;;;;;;11.93;0.70;;;4.60;99.90;;;;;;5045183;28;20029;-73
2021/11/22 01:35:50;;;;;;;1.25;0.90;;;4.50;99.90;;;;;;5046281;28;20076;-74
2021/11/22 01:38:16;;;;;;;6.07;0.70;;;4.60;99.90;;;;;;5045005;28;20466;-73
2021/11/22 01:40:43;;;;;;;0.82;0.77;;;4.50;99.90;;;;;;5046266;28;20025;-73
2021/11/22 01:43:14;;;;;;;1.50;0.90;;;4.50;99.90;;;;;;5046193;28;20029;-74
2021/11/22 01:45:43;;;;;;;4.50;1.27;;;4.50;99.90;;;;;;5044788;28;20028;-73
2021/11/22 01:48:09;;;;;;;5.43;1.23;;;4.40;99.90;;;;;;5046068;28;20382;-73
2021/11/22 01:50:35;;;;;;;3.83;1.17;;;4.50;99.90;;;;;;5045873;28;20032;-74
2021/11/22 01:53:01;;;;;;;0.40;0.32;;;4.40;99.90;;;;;;5045918;28;20029;-74
2021/11/22 01:55:29;;;;;;;5.57;1.30;;;4.40;99.90;;;;;;5046121;28;20585;-74
2021/11/22 01:57:56;;;;;;;3.05;0.90;;;4.40;99.90;;;;;;5045940;28;20025;-74
2021/11/22 02:00:27;;;;;;;1.27;0.77;;;4.40;99.90;;;;;;5045976;28;20029;-73
2021/11/22 02:02:53;;;;;;;1.67;0.82;;;4.30;99.90;;;;;;5045940;28;20030;-74
2021/11/22 02:05:19;;;;;;;1.52;0.93;;;4.40;99.90;;;;;;5045780;28;20061;-74
2021/11/22 02:07:45;;;;;;;1.58;1.02;;;4.40;99.90;;;;;;5044328;28;20061;-74
2021/11/22 02:10:11;;;;;;;1.25;0.95;;;4.30;99.90;;;;;;5045595;28;20029;-73
2021/11/22 02:12:38;;;;;;;1.88;0.77;;;4.30;99.90;;;;;;5045410;28;20025;-74
2021/11/22 02:15:07;;;;;;;8.65;1.02;;;4.30;99.90;;;;;;5045418;28;20097;-75
2021/11/22 02:17:36;;;;;;;2.15;0.90;;;4.30;99.90;;;;;;5045128;28;20496;-75
2021/11/22 02:20:06;;;;;;;2.03;1.00;;;4.30;99.90;;;;;;5040496;28;20560;-74
2021/11/22 02:22:33;;;;;;;1.88;0.90;;;4.30;99.90;;;;;;5034585;28;20021;-74
2021/11/22 02:25:01;;;;;;;2.10;0.88;;;4.30;99.90;;;;;;5025734;28;20427;-75
2021/11/22 02:27:26;;;;;;;5.30;1.10;;;4.30;99.90;;;;;;5025228;28;20031;-75
2021/11/22 02:29:52;;;;;;;6.50;1.42;;;4.20;99.90;;;;;;5026202;28;20079;-74
2021/11/22 02:32:18;;;;;;;2.40;1.15;;;4.20;99.90;;;;;;5025568;28;20101;-74
2021/11/22 02:34:48;;;;;;;3.42;1.20;;;4.20;99.90;;;;;;5024963;28;20050;-74
2021/11/22 02:37:13;;;;;;;3.63;0.80;;;4.20;99.90;;;;;;5025278;28;20037;-74
2021/11/22 02:39:39;;;;;;;2.75;1.58;;;4.20;99.90;;;;;;5025257;28;20030;-74
2021/11/22 02:42:21;;;;;;;4.00;1.13;;;4.20;99.90;;;;;;5025035;28;20044;-75
2021/11/22 02:44:47;;;;;;;1.05;0.80;;;4.10;99.90;;;;;;5025230;28;20053;-74
2021/11/22 02:47:12;;;;;;;2.90;1.25;;;4.20;99.90;;;;;;5023970;28;20025;-74
2021/11/22 02:49:38;;;;;;;8.13;1.35;;;4.10;99.90;;;;;;5025102;28;20072;-75
2021/11/22 02:52:04;;;;;;;3.85;1.27;;;4.10;99.90;;;;;;5025086;28;20030;-75
2021/11/22 02:54:30;;;;;;;1.65;1.08;;;4.00;99.90;;;;;;5023877;28;20038;-75
2021/11/22 02:56:56;;;;;;;1.65;1.00;;;4.00;99.90;;;;;;5025198;28;20105;-75
2021/11/22 02:59:21;;;;;;;2.13;1.20;;;4.00;99.90;;;;;;5024959;28;20030;-75
2021/11/22 03:01:47;;;;;;;2.25;0.80;;;4.00;99.90;;;;;;5024946;28;20030;-74
2021/11/22 03:04:12;;;;;;;2.97;1.25;;;3.90;99.90;;;;;;5023763;28;20485;-74
2021/11/22 03:06:38;;;;;;;2.30;0.90;;;3.80;99.90;;;;;;5024886;28;20053;-74
2021/11/22 03:09:05;;;;;;;6.57;0.93;;;3.80;99.90;;;;;;5024874;28;20038;-75
2021/11/22 03:11:31;;;;;;;4.13;2.15;;;3.80;99.90;;;;;;5034235;28;20030;-75
2021/11/22 03:13:57;;;;;;;3.22;0.98;;;3.70;99.90;;;;;;5044716;28;20029;-74
2021/11/22 03:16:22;;;;;;;7.20;1.05;;;3.80;99.90;;;;;;5044672;28;20048;-74
2021/11/22 03:18:48;;;;;;;6.30;1.65;;;3.80;99.90;;;;;;5044592;28;20028;-74
2021/11/22 03:21:14;;;;;;;3.28;1.45;;;3.70;99.90;;;;;;5043098;28;20088;-75
2021/11/22 03:23:41;;;;;;;2.65;1.10;;;3.70;99.90;;;;;;5044414;28;20560;-74
2021/11/22 03:26:08;;;;;;;2.53;1.45;;;3.70;99.90;;;;;;5043213;28;20021;-74
2021/11/22 03:28:33;;;;;;;7.45;1.10;;;3.70;99.90;;;;;;5044609;28;20030;-75
2021/11/22 03:31:00;;;;;;;3.63;1.25;;;3.70;99.90;;;;;;5044413;28;20110;-75
2021/11/22 03:33:27;;;;;;;3.42;1.45;;;3.60;99.90;;;;;;5044153;28;20089;-75
2021/11/22 03:35:53;;;;;;;3.22;1.15;;;3.60;99.90;;;;;;5044234;28;20096;-72
2021/11/22 03:38:21;;;;;;;7.63;0.88;;;3.60;99.90;;;;;;5045641;28;20053;-73
2021/11/22 03:40:47;;;;;;;2.45;1.23;;;3.60;99.90;;;;;;5048033;28;20493;-72
2021/11/22 03:43:16;;;;;;;4.80;1.55;;;3.60;99.90;;;;;;5048250;28;20067;-72
2021/11/22 03:45:47;;;;;;;4.55;1.67;;;3.60;99.90;;;;;;5047024;28;20386;-73
2021/11/22 03:48:13;;;;;;;1.88;1.05;;;3.60;99.90;;;;;;5048394;28;20025;-73
2021/11/22 03:50:40;;;;;;;2.40;1.20;;;3.60;99.90;;;;;;5048211;28;20025;-73
2021/11/22 03:53:05;;;;;;;2.85;1.20;;;3.50;99.90;;;;;;5048224;28;20449;-73
2021/11/22 03:55:32;;;;;;;3.63;2.05;;;3.50;99.90;;;;;;5048653;28;20033;-73
2021/11/22 03:57:58;;;;;;;13.50;1.65;;;3.50;99.90;;;;;;5057628;28;20040;-72
2021/11/22 04:00:28;;;;;;;6.80;1.40;;;3.50;99.90;;;;;;5034008;28;20044;-73
2021/11/22 04:02:55;;;;;;;2.15;1.13;;;3.50;99.90;;;;;;5028504;28;20025;-73
2021/11/22 04:05:21;;;;;;;5.32;1.23;;;3.50;99.90;;;;;;5040668;28;20022;-73
2021/11/22 04:07:47;;;;;;;4.68;1.58;;;3.50;99.90;;;;;;5046678;28;20025;-73
2021/11/22 04:10:13;;;;;;;1.90;1.23;;;3.50;99.90;;;;;;5047875;28;20027;-73
2021/11/22 04:12:38;;;;;;;8.88;2.03;;;3.50;99.90;;;;;;5047851;28;20031;-73
2021/11/22 04:15:05;;;;;;;4.25;1.55;;;3.50;99.90;;;;;;5047631;28;20052;-73
2021/11/22 04:17:31;;;;;;;2.05;1.02;;;3.40;99.90;;;;;;5046574;28;20032;-74
2021/11/22 04:19:57;;;;;;;2.42;1.52;;;3.40;99.90;;;;;;5043999;28;20067;-74
2021/11/22 04:22:23;;;;;;;8.15;1.58;;;3.40;99.90;;;;;;5028026;28;20080;-73
2021/11/22 04:24:48;;;;;;;2.42;1.15;;;3.40;99.90;;;;;;5027826;28;20030;-73
2021/11/22 04:27:14;;;;;;;3.53;1.80;;;3.30;99.90;;;;;;5027823;28;20045;-74
2021/11/22 04:29:40;;;;;;;3.88;2.00;;;3.30;99.90;;;;;;5027875;28;20029;-73
2021/11/22 04:32:08;;;;;;;3.42;1.15;;;3.30;99.90;;;;;;5026376;28;20034;-73
2021/11/22 04:34:34;;;;;;;4.05;1.40;;;3.30;99.90;;;;;;5027304;28;20223;-73
2021/11/22 04:37:00;;;;;;;3.40;1.33;;;3.20;99.90;;;;;;5027559;28;20030;-73
2021/11/22 04:39:26;;;;;;;2.85;1.30;;;3.20;99.90;;;;;;5027625;28;20081;-74
2021/11/22 04:41:52;;;;;;;7.45;1.58;;;3.30;99.90;;;;;;5026113;28;20034;-73
2021/11/22 04:44:17;;;;;;;2.63;1.08;;;3.20;99.90;;;;;;5027235;28;20026;-73
2021/11/22 04:46:43;;;;;;;3.80;1.90;;;3.20;99.90;;;;;;5027353;28;20092;-73
2021/11/22 04:49:09;;;;;;;4.40;1.35;;;3.20;99.90;;;;;;5053098;28;20458;-73
2021/11/22 04:51:35;;;;;;;2.97;1.42;;;3.20;99.90;;;;;;5065713;28;20029;-74
2021/11/22 04:54:00;;;;;;;2.92;1.55;;;3.20;99.90;;;;;;5067238;28;20025;-74
2021/11/22 04:56:27;;;;;;;3.38;1.75;;;3.10;99.90;;;;;;5067074;28;20101;-74
2021/11/22 04:58:52;;;;;;;2.97;1.75;;;3.10;99.90;;;;;;5067078;28;20029;-74
2021/11/22 05:01:18;;;;;;;7.82;1.83;;;3.10;99.90;;;;;;5066948;28;20032;-74
2021/11/22 05:03:46;;;;;;;5.05;1.92;;;3.10;99.90;;;;;;5057564;28;20031;-73
2021/11/22 05:06:11;;;;;;;4.15;1.85;;;3.10;99.90;;;;;;5045518;28;20040;-74
2021/11/22 05:08:42;;;;;;;5.53;1.58;;;3.10;99.90;;;;;;5062213;28;20450;-74
2021/11/22 05:11:08;;;;;;;5.45;1.42;;;3.00;99.90;;;;;;5046835;28;20030;-73
2021/11/22 05:13:34;;;;;;;4.30;2.03;;;3.10;99.90;;;;;;5046897;28;20385;-73
2021/11/22 05:16:00;;;;;;;9.15;2.13;;;3.10;99.90;;;;;;5044770;28;20061;-75
2021/11/22 05:18:25;;;;;;;2.78;1.30;;;3.10;99.90;;;;;;5026990;28;20034;-75
2021/11/22 05:20:51;;;;;;;4.20;1.58;;;3.10;99.90;;;;;;5025405;28;20041;-75
2021/11/22 05:23:17;;;;;;;4.85;1.95;;;3.00;99.90;;;;;;5025571;28;20041;-74
2021/11/22 05:25:43;;;;;;;3.03;1.67;;;3.00;99.90;;;;;;5026920;28;20029;-75
2021/11/22 05:28:09;;;;;;;6.57;1.95;;;3.10;99.90;;;;;;5026648;28;20113;-74
2021/11/22 05:30:36;;;;;;;3.03;1.42;;;3.00;99.90;;;;;;5026447;28;20026;-75
2021/11/22 05:33:03;;;;;;;11.07;1.95;;;3.00;99.90;;;;;;5026635;28;20030;-74
2021/11/22 05:35:30;;;;;;;3.70;2.03;;;3.00;99.90;;;;;;5031872;28;20059;-74
2021/11/22 05:37:56;;;;;;;4.32;1.58;;;3.00;99.90;;;;;;5061581;28;20025;-75
2021/11/22 05:40:24;;;;;;;3.38;1.58;;;2.90;99.90;;;;;;5046420;28;20052;-74
2021/11/22 05:42:52;;;;;;;4.03;2.13;;;3.00;99.90;;;;;;5044665;28;20037;-74
2021/11/22 05:45:19;;;;;;;2.78;1.90;;;2.90;99.90;;;;;;5046041;28;20029;-74
2021/11/22 05:47:44;;;;;;;4.25;1.75;;;2.90;99.90;;;;;;5045989;28;20040;-74
2021/11/22 05:50:12;;;;;;;4.13;1.80;;;2.90;99.90;;;;;;5045963;28;20053;-74
2021/11/22 05:52:43;;;;;;;5.97;2.80;;;2.80;99.90;;;;;;5044518;28;20041;-74
2021/11/22 05:55:17;;;;;;;8.20;2.40;;;2.80;99.90;;;;;;5044672;28;20041;-75
2021/11/22 05:57:42;;;;;;;5.63;2.42;;;2.80;99.90;;;;;;5046010;28;20164;-74
2021/11/22 06:00:09;;;;;;;6.68;2.50;;;2.80;99.90;;;;;;5045415;28;20033;-75
2021/11/22 06:02:35;;;;;;;6.63;2.25;;;2.80;99.90;;;;;;5045287;28;20053;-75
2021/11/22 06:05:03;;;;;;;4.03;2.15;;;2.80;99.90;;;;;;5044576;28;20417;-75
2021/11/22 06:07:29;;;;;;;7.97;2.28;;;2.70;99.90;;;;;;5045710;28;20039;-75
2021/11/22 06:09:58;;;;;;;4.88;2.00;;;2.70;99.90;;;;;;5044069;28;20075;-75
2021/11/22 06:12:24;;;;;;;12.48;2.15;;;2.70;99.90;;;;;;5052832;28;20108;-74
2021/11/22 06:14:52;;;;;;;5.43;2.08;;;2.60;99.90;;;;;;5045482;28;20022;-75
2021/11/22 06:17:24;;;;;;;6.65;2.28;;;2.60;99.90;;;;;;5037766;28;20032;-74
2021/11/22 06:19:52;;;;;;;4.05;2.28;;;2.60;99.90;;;;;;5025708;28;20038;-75
2021/11/22 06:22:18;;;;;;;4.97;2.28;;;2.60;99.90;;;;;;5041759;28;20032;-74
2021/11/22 06:24:43;;;;;;;5.32;2.15;;;2.60;99.90;;;;;;5038766;28;20022;-74
2021/11/22 06:27:14;;;;;;;7.63;2.85;;;2.60;99.90;;;;;;5044728;28;20040;-75
2021/11/22 06:29:40;;;;;;;4.40;1.98;;;2.60;99.90;;;;;;5042793;28;20048;-75
2021/11/22 06:32:12;;;;;;;5.28;2.35;;;2.50;99.90;;;;;;5044297;28;20032;-75
2021/11/22 06:34:41;;;;;;;3.85;2.03;;;2.60;99.90;;;;;;5044015;28;20052;-74
2021/11/22 06:37:08;;;;;;;4.95;2.45;;;2.60;99.90;;;;;;5044767;28;20026;-74
2021/11/22 06:39:34;;;;;;;5.78;1.98;;;2.50;99.90;;;;;;5044839;28;20064;-76
2021/11/22 06:42:01;;;;;;;4.68;2.35;;;2.50;99.90;;;;;;5044356;28;20025;-75
2021/11/22 06:44:28;;;;;;;11.25;1.95;;;2.50;99.90;;;;;;5042704;28;20136;-76
2021/11/22 06:46:54;;;;;;;3.15;1.90;;;2.50;99.90;;;;;;5043613;28;20063;-74
2021/11/22 06:49:20;;;;;;;3.30;1.77;;;2.50;99.90;;;;;;5044922;28;20025;-74
2021/11/22 06:51:46;;;;;;;4.55;2.33;;;2.50;99.90;;;;;;5062451;28;20089;-74
2021/11/22 06:54:12;;;;;;;8.50;3.00;;;2.50;99.90;;;;;;5064864;28;20044;-74
2021/11/22 06:56:38;;;;;;;5.57;2.38;;;2.50;99.90;;;;;;5056585;28;20041;-74
2021/11/22 06:59:04;;;;;;;4.95;2.33;;;2.50;99.90;;;;;;5033761;28;20030;-75
2021/11/22 07:01:31;;;;;;;13.60;3.10;;;2.50;99.90;;;;;;5040590;28;20026;-76
2021/11/22 07:03:57;;;;;;;5.93;3.58;;;2.50;99.90;;;;;;5037650;28;20033;-77
2021/11/22 07:06:22;;;;;;;9.32;4.07;;;2.50;99.90;;;;;;5039834;28;20025;-75
2021/11/22 07:08:48;;;;;;;7.15;2.47;;;2.50;99.90;;;;;;5046958;28;20073;-75
2021/11/22 07:11:14;;;;;;;4.78;2.25;;;2.50;99.90;;;;;;5035753;28;20029;-74
2021/11/22 07:13:40;;;;;;;10.80;2.70;;;2.50;99.90;;;;;;5044530;28;20038;-75
2021/11/22 07:16:06;;;;;;;10.60;2.58;;;2.50;99.90;;;;;;5044667;28;20037;-75
2021/11/22 07:18:32;;;;;;;6.40;2.28;;;2.50;99.90;;;;;;5044028;28;20387;-75
2021/11/22 07:20:59;;;;;;;5.45;2.03;;;2.60;99.90;;;;;;5031422;28;20025;-76
2021/11/22 07:23:26;;;;;;;4.85;1.95;;;2.60;99.90;;;;;;5026620;28;20024;-77
2021/11/22 07:25:55;;;;;;;6.82;3.40;;;2.50;99.90;;;;;;5028797;28;20040;-75
2021/11/22 07:28:22;;;;;;;20.10;4.85;;;2.50;99.90;;;;;;5062756;28;20440;-75
2021/11/22 07:30:48;;;;;;;5.13;2.88;;;2.50;99.90;;;;;;5062616;28;20029;-75
2021/11/22 07:33:14;;;;;;;10.70;3.40;;;2.50;99.90;;;;;;5064515;28;20029;-74
2021/11/22 07:35:40;;;;;;;8.93;4.35;;;2.50;99.90;;;;;;5063936;28;20049;-74
2021/11/22 07:38:07;;;;;;;7.50;3.33;;;2.60;99.90;;;;;;5064174;28;20036;-74
2021/11/22 07:40:33;;;;;;;19.17;7.05;;;2.80;99.90;;;;;;5064284;28;20029;-75
2021/11/22 07:43:08;;;;;;;13.40;5.63;;;3.10;99.90;;;;;;5063471;28;20029;-75
2021/11/22 07:45:35;;;;;;;8.80;3.72;;;3.40;99.90;;;;;;5064183;28;20037;-76
2021/11/22 07:48:01;;;;;;;7.70;3.60;;;3.80;99.90;;;;;;5064270;28;20026;-76
2021/11/22 07:50:30;;;;;;;8.32;3.72;;;4.10;99.90;;;;;;5063033;28;20032;-76
2021/11/22 07:52:57;;;;;;;13.13;4.60;;;4.40;99.90;;;;;;5062994;28;20037;-75
2021/11/22 07:55:23;;;;;;;7.60;3.40;;;4.70;99.90;;;;;;5061081;28;20041;-75
2021/11/22 07:57:55;;;;;;;5.45;2.80;;;5.00;99.90;;;;;;5030186;28;20033;-74
2021/11/22 08:00:23;;;;;;;7.05;3.97;;;5.30;99.90;;;;;;5026607;28;20053;-75
2021/11/22 08:02:49;;;;;;;7.03;3.55;;;5.60;99.90;;;;;;5041909;28;20080;-75
2021/11/22 08:05:15;;;;;;;5.03;2.70;;;5.70;99.90;;;;;;5043978;28;20119;-75
2021/11/22 08:07:42;;;;;;;2.35;1.85;;;5.90;99.90;;;;;;5044105;28;20030;-74
2021/11/22 08:13:02;;;;;;;5.03;1.75;;;6.30;99.90;;;;;;5044087;28;20030;-75
2021/11/22 08:15:36;;;;;;;3.72;2.30;;;6.50;99.90;;;;;;5041327;28;20094;-75
2021/11/22 08:18:06;;;;;;;5.45;2.20;;;6.60;99.90;;;;;;5034197;28;20037;-75
2021/11/22 08:20:36;;;;;;;7.50;4.30;;;6.60;99.90;;;;;;5025182;28;20086;-75
2021/11/22 08:23:04;;;;;;;7.88;2.70;;;6.60;99.90;;;;;;5033461;28;20029;-75
2021/11/22 08:25:44;;;;;;;3.60;2.50;;;6.60;99.90;;;;;;5046459;28;20036;-75
2021/11/22 08:28:14;;;;;;;6.47;1.90;;;6.50;99.90;;;;;;5039763;28;20069;-75
2021/11/22 08:30:39;;;;;;;2.75;1.52;;;6.40;99.90;;;;;;5046816;28;20025;-75
2021/11/22 08:33:05;;;;;;;3.20;1.58;;;6.20;99.90;;;;;;5061954;28;20036;-74
2021/11/22 08:35:31;;;;;;;2.72;1.52;;;6.10;99.90;;;;;;5064050;28;20113;-75
2021/11/22 08:38:01;;;;;;;4.57;2.28;;;5.90;99.90;;;;;;5065191;28;20060;-75
2021/11/22 08:40:31;;;;;;;3.75;1.63;;;5.90;99.90;;;;;;5046517;28;20030;-75
2021/11/22 08:43:02;;;;;;;2.50;1.60;;;5.80;99.90;;;;;;5047052;28;20069;-75
2021/11/22 08:45:29;;;;;;;6.10;2.00;;;5.70;99.90;;;;;;5047322;28;20044;-75
2021/11/22 08:48:01;;;;;;;4.30;1.92;;;5.70;99.90;;;;;;5045405;28;20036;-75
2021/11/22 08:50:35;;;;;;;3.95;2.17;;;5.90;99.90;;;;;;5046864;28;20033;-76
2021/11/22 08:53:01;;;;;;;;;;;5.80;99.90;;;;;;5043006;28;20049;-75
2021/11/22 08:55:32;;;;;;;7.70;2.58;;;5.80;99.90;;;;;;5034790;28;19913;-75
2021/11/22 08:58:01;;;;;;;8.50;2.95;;;6.00;99.90;;;;;;5027500;28;20030;-74
2021/11/22 09:00:35;;;;;;;2.70;1.42;;;6.00;99.90;;;;;;5027567;28;20030;-74
2021/11/22 09:03:03;;;;;;;5.97;1.70;;;6.00;99.90;;;;;;5037106;28;20033;-75
2021/11/22 09:05:30;;;;;;;5.38;1.80;;;6.00;99.90;;;;;;5037378;28;20034;-75
2021/11/22 09:07:56;;;;;;;3.30;1.52;;;6.00;99.90;;;;;;5027287;28;20034;-75
2021/11/22 09:10:23;;;;;;;4.20;1.65;;;6.10;99.90;;;;;;5039832;28;20489;-74
2021/11/22 09:12:51;;;;;;;4.63;2.38;;;6.00;99.90;;;;;;5045650;28;20032;-73
2021/11/22 09:15:17;;;;;;;3.03;1.52;;;6.10;99.90;;;;;;5026847;28;20073;-74
2021/11/22 09:17:43;;;;;;;11.57;2.63;;;6.10;99.90;;;;;;5044383;28;20482;-75
2021/11/22 09:20:09;;;;;;;6.03;2.10;;;6.20;99.90;;;;;;5027118;28;20056;-74
2021/11/22 09:22:37;;;;;;;3.17;1.80;;;6.40;99.90;;;;;;5025037;28;20037;-74
2021/11/22 09:25:04;;;;;;;3.92;1.50;;;6.80;99.90;;;;;;5030383;28;20022;-75
2021/11/22 09:27:31;;;;;;;2.55;1.13;;;7.30;99.90;;;;;;5027084;28;20053;-75
2021/11/22 09:29:58;;;;;;;9.98;1.33;;;7.90;99.90;;;;;;5041833;28;20064;-74
2021/11/22 09:32:25;;;;;;;3.95;1.13;;;8.40;99.90;;;;;;5042305;28;20041;-74
2021/11/22 09:34:51;;;;;;;5.28;1.15;;;8.90;99.90;;;;;;5034427;28;20057;-76
2021/11/22 09:37:17;;;;;;;2.67;1.30;;;9.30;99.90;;;;;;5032186;28;20037;-74
2021/11/22 09:39:43;;;;;;;5.82;1.13;;;9.60;99.90;;;;;;5046032;28;20037;-73
2021/11/22 09:42:10;;;;;;;2.47;1.15;;;9.70;99.90;;;;;;5035715;28;20034;-73
2021/11/22 09:44:36;;;;;;;6.00;1.33;;;9.70;99.90;;;;;;5038858;28;20022;-74
2021/11/22 09:47:02;;;;;;;1.40;0.90;;;9.50;99.90;;;;;;5035826;28;20048;-75
2021/11/22 09:49:30;;;;;;;2.22;1.13;;;9.30;99.90;;;;;;5044921;28;20026;-74
2021/11/22 09:51:57;;;;;;;0.68;0.52;;;9.10;99.90;;;;;;5044888;28;20029;-74
2021/11/22 09:54:23;;;;;;;2.70;0.70;;;9.10;99.90;;;;;;5035054;28;20026;-75
2021/11/22 09:57:07;;;;;;;3.38;1.30;;;9.10;99.90;;;;;;5031710;28;20049;-75
2021/11/22 09:59:32;;;;;;;4.73;0.93;;;9.20;99.90;;;;;;5044197;28;20060;-73
2021/11/22 10:02:00;;;;;;;1.45;0.77;;;9.10;99.90;;;;;;5037168;28;20745;-74
2021/11/22 10:04:32;;;;;;;1.00;0.70;;;9.00;99.90;;;;;;5044062;28;20033;-76
2021/11/22 10:07:05;;;;;;;1.38;0.77;;;9.20;99.90;;;;;;5040309;28;20033;-75
2021/11/22 10:09:31;;;;;;;5.03;0.90;;;9.30;99.90;;;;;;5041525;28;20052;-76
2021/11/22 10:12:00;;;;;;;1.67;0.45;;;9.30;99.90;;;;;;5033341;28;20014;-74
2021/11/22 10:14:29;;;;;;;0.90;0.60;;;9.20;99.90;;;;;;5024964;28;20106;-77
2021/11/22 10:16:57;;;;;;;10.60;0.73;;;9.20;99.90;;;;;;5034224;28;20088;-75
2021/11/22 10:19:23;;;;;;;1.42;0.77;;;9.30;99.90;;;;;;5045698;28;20029;-75
2021/11/22 10:21:49;;;;;;;0.57;0.35;;;9.60;99.90;;;;;;5040673;28;20034;-75
2021/11/22 10:24:15;;;;;;;1.90;0.80;;;9.90;99.90;;;;;;5032339;28;20037;-76
2021/11/22 10:26:51;;;;;;;11.02;0.82;;;10.20;99.90;;;;;;5028654;28;20076;-76
2021/11/22 10:29:34;;;;;;;4.55;0.63;;;10.30;99.90;;;;;;5038409;28;20029;-74
2021/11/22 10:32:04;;;;;;;6.15;0.93;;;10.40;99.90;;;;;;5036382;28;20029;-74
2021/11/22 10:34:35;;;;;;;5.93;1.92;;;10.50;99.90;;;;;;5043743;28;20065;-75
2021/11/22 10:37:06;;;;;;;6.95;0.93;;;10.60;99.90;;;;;;5044991;28;20080;-75
2021/11/22 10:39:36;;;;;;;1.25;0.73;;;10.40;99.90;;;;;;5045037;28;20052;-75
2021/11/22 10:42:03;;;;;;;1.50;0.85;;;10.10;99.90;;;;;;5028279;28;20470;-76
2021/11/22 10:44:32;;;;;;;4.97;0.55;;;9.90;99.90;;;;;;5023635;28;20034;-76
2021/11/22 10:47:11;;;;;;;3.85;0.32;;;10.00;99.90;;;;;;5025092;28;20022;-75
2021/11/22 10:49:45;;;;;;;0.88;0.50;;;10.30;99.90;;;;;;5025179;28;20026;-75
2021/11/22 10:52:35;;;;;;;1.42;0.50;;;10.60;99.90;;;;;;5025258;28;20085;-73
2021/11/22 10:55:06;;;;;;;1.67;0.85;;;10.80;99.90;;;;;;5025051;28;20037;-73
2021/11/22 10:57:36;;;;;;;1.52;0.75;;;10.90;99.90;;;;;;5025415;28;20057;-74
2021/11/22 11:00:17;;;;;;;1.38;0.47;;;11.00;99.90;;;;;;5025349;28;20030;-74
2021/11/22 11:02:43;;;;;;;1.63;0.70;;;11.20;99.90;;;;;;5023953;28;20034;-74
2021/11/22 11:05:45;;;;;;;0.93;0.73;;;11.40;99.90;;;;;;5031188;28;20033;-75
2021/11/22 11:08:12;;;;;;;0.57;0.28;;;11.70;99.90;;;;;;5023492;28;20033;-76
2021/11/22 11:10:39;;;;;;;3.28;0.30;;;12.20;99.90;;;;;;5035554;28;20033;-75
2021/11/22 11:13:05;;;;;;;0.73;0.25;;;12.50;99.90;;;;;;5047435;28;20028;-72
2021/11/22 11:15:32;;;;;;;0.10;0.10;;;12.70;99.90;;;;;;5031480;28;20038;-74
2021/11/22 11:18:01;;;;;;;0.30;0.10;;;12.60;99.90;;;;;;5034102;28;20086;-74
2021/11/22 11:20:33;;;;;;;2.72;0.52;;;12.40;99.90;;;;;;5055249;28;20436;-76
2021/11/22 11:23:02;;;;;;;0.38;0.22;;;12.20;99.90;;;;;;5039616;28;20398;-75
2021/11/22 11:25:30;;;;;;;0.90;0.40;;;11.80;99.90;;;;;;5043192;28;20040;-75
2021/11/22 11:28:01;;;;;;;2.13;0.55;;;11.60;99.90;;;;;;5043353;28;20096;-74
2021/11/22 11:30:27;;;;;;;3.63;0.63;;;11.40;99.90;;;;;;5043304;28;20037;-75
2021/11/22 11:32:53;;;;;;;2.38;0.47;;;11.30;99.90;;;;;;5044750;28;20031;-74
2021/11/22 11:35:21;;;;;;;0.93;0.60;;;11.30;99.90;;;;;;5043842;28;20089;-74
2021/11/22 11:38:15;;;;;;;1.98;0.73;;;11.20;99.90;;;;;;5044196;28;20096;-75
2021/11/22 11:41:06;;;;;;;0.82;0.50;;;11.20;99.90;;;;;;5044414;28;20058;-74
2021/11/22 11:43:33;;;;;;;1.10;0.70;;;11.30;99.90;;;;;;5043358;28;20033;-75
2021/11/22 11:46:08;;;;;;;1.60;0.60;;;11.40;99.90;;;;;;5055159;28;20029;-74
2021/11/22 11:48:51;;;;;;;0.90;0.60;;;11.50;99.90;;;;;;5061045;28;20103;-73
2021/11/22 11:51:20;;;;;;;1.05;0.47;;;11.60;99.90;;;;;;5023456;28;20038;-73
2021/11/22 11:54:04;;;;;;;5.50;0.30;;;11.60;99.90;;;;;;5024463;28;20022;-73
2021/11/22 11:56:51;;;;;;;;;;;11.70;99.90;;;;;;5024975;28;20038;-75
2021/11/22 11:59:28;;;;;;;2.70;0.55;;;11.70;99.90;;;;;;5025622;28;19969;-74
2021/11/22 12:02:06;;;;;;;0.75;0.50;;;11.70;99.90;;;;;;5028779;28;20028;-73
2021/11/22 12:04:47;;;;;;;2.35;0.73;;;11.70;99.90;;;;;;5028456;28;20022;-75
2021/11/22 12:07:40;;;;;;;1.08;0.50;;;11.80;99.90;;;;;;5038076;28;20026;-74
2021/11/22 12:10:09;;;;;;;0.85;0.60;;;12.00;99.90;;;;;;5043128;28;20040;-74
2021/11/22 12:12:38;;;;;;;0.85;0.73;;;12.40;99.90;;;;;;5040016;28;20125;-75
2021/11/22 12:15:31;;;;;;;2.63;0.82;;;12.50;99.90;;;;;;5043742;28;20096;-74
2021/11/22 12:18:05;;;;;;;1.35;0.60;;;12.80;99.90;;;;;;5039955;28;20121;-77
2021/11/22 12:20:36;;;;;;;2.20;0.65;;;12.90;99.90;;;;;;5047595;28;20105;-75
2021/11/22 12:23:06;;;;;;;1.38;0.60;;;12.50;99.90;;;;;;5047853;28;20390;-74
2021/11/22 12:25:43;;;;;;;2.00;0.50;;;12.50;99.90;;;;;;5046270;28;20030;-74
2021/11/22 12:28:18;;;;;;;2.78;0.90;;;12.20;99.90;;;;;;5047252;28;20466;-76
2021/11/22 12:30:53;;;;;;;1.65;0.57;;;12.20;99.90;;;;;;5047687;28;20065;-74
2021/11/22 12:33:24;;;;;;;;;;;12.40;99.90;;;;;;5048135;28;20093;-75
2021/11/22 12:36:00;;;;;;;0.57;0.20;;;12.30;99.90;;;;;;5046130;28;19948;-74
2021/11/22 12:38:30;;;;;;;1.25;0.40;;;12.00;99.90;;;;;;5046404;28;20072;-76
2021/11/22 12:41:08;;;;;;;1.17;1.00;;;11.60;99.90;;;;;;5046550;28;20033;-77
2021/11/22 12:43:47;;;;;;;0.75;0.45;;;11.10;99.90;;;;;;5046101;28;20038;-75
2021/11/22 12:46:19;;;;;;;0.38;0.22;;;11.10;99.90;;;;;;5045834;28;20375;-73
2021/11/22 12:49:00;;;;;;;1.17;0.60;;;11.70;99.90;;;;;;5047294;28;20021;-74
2021/11/22 12:51:27;;;;;;;4.20;0.52;;;12.30;99.90;;;;;;5035663;28;20471;-76
2021/11/22 12:54:12;;;;;;;1.25;0.47;;;13.00;99.90;;;;;;5034399;28;20065;-75
2021/11/22 12:56:40;;;;;;;3.17;0.77;;;13.70;99.90;;;;;;5035444;28;20037;-78
2021/11/22 12:59:18;;;;;;;9.23;0.60;;;14.30;99.90;;;;;;5050325;28;20033;-77
2021/11/22 13:01:51;;;;;;;0.80;0.30;;;14.60;99.90;;;;;;5045115;28;20025;-75
2021/11/22 13:04:43;;;;;;;0.57;0.35;;;15.30;99.90;;;;;;5054854;28;20033;-75